createdAt,value
2023-04-29T00:01:26.121Z,80.46
2023-04-29T00:03:53.773Z,80.51
2023-04-29T00:06:21.801Z,80.14
2023-04-29T00:08:49.005Z,79.80
2023-04-29T00:11:16.391Z,79.92
2023-04-29T00:13:43.482Z,79.93
2023-04-29T00:16:10.556Z,79.76
2023-04-29T00:18:38.122Z,79.75
2023-04-29T00:21:08.369Z,79.90
2023-04-29T00:23:35.555Z,79.75
2023-04-29T00:26:02.701Z,79.79
2023-04-29T00:28:29.686Z,79.51
2023-04-29T00:30:57.379Z,79.54
2023-04-29T00:33:24.529Z,79.97
2023-04-29T00:35:51.583Z,79.82
2023-04-29T00:38:18.637Z,79.49
2023-04-29T00:40:45.946Z,79.36
2023-04-29T00:43:13.572Z,79.57
2023-04-29T00:45:40.662Z,79.92
2023-04-29T00:48:08.069Z,79.57
2023-04-29T00:50:36.887Z,79.70
2023-04-29T00:53:04.498Z,79.57
2023-04-29T00:55:33.671Z,79.76
2023-04-29T00:58:02.918Z,79.69
2023-04-29T01:00:31.001Z,79.78
2023-04-29T01:03:00.051Z,79.79
2023-04-29T01:05:27.279Z,79.54
2023-04-29T01:08:06.422Z,79.80
2023-04-29T01:10:42.258Z,79.50
2023-04-29T01:13:19.371Z,79.09
2023-04-29T01:16:23.645Z,79.07
2023-04-29T01:18:55.736Z,79.58
2023-04-29T01:21:23.036Z,79.40
2023-04-29T01:23:56.125Z,79.07
2023-04-29T01:26:24.105Z,79.19
2023-04-29T01:28:59.771Z,79.14
2023-04-29T01:31:46.664Z,79.17
2023-04-29T01:34:47.963Z,78.97
2023-04-29T01:37:23.035Z,79.17
2023-04-29T01:39:56.864Z,79.01
2023-04-29T01:42:36.823Z,78.95
2023-04-29T01:45:08.457Z,79.15
2023-04-29T01:47:36.820Z,78.60
2023-04-29T01:50:04.477Z,78.30
2023-04-29T01:52:31.425Z,78.50
2023-04-29T01:54:58.315Z,78.09
2023-04-29T01:57:25.292Z,78.23
2023-04-29T01:59:52.865Z,78.50
2023-04-29T02:02:23.695Z,78.25
2023-04-29T02:04:51.015Z,78.42
2023-04-29T02:07:18.047Z,78.31
2023-04-29T02:09:44.989Z,78.31
2023-04-29T02:12:11.947Z,78.29
2023-04-29T02:14:39.053Z,78.28
2023-04-29T02:17:06.117Z,77.99
2023-04-29T02:19:33.212Z,78.07
2023-04-29T02:22:00.183Z,78.40
2023-04-29T02:24:27.127Z,78.39
2023-04-29T02:26:54.283Z,78.46
2023-04-29T02:29:21.591Z,78.06
2023-04-29T02:31:48.552Z,78.08
2023-04-29T02:34:15.627Z,77.84
2023-04-29T02:36:42.690Z,77.69
2023-04-29T02:39:09.668Z,77.57
2023-04-29T02:41:36.579Z,77.36
2023-04-29T02:44:04.152Z,77.74
2023-04-29T02:46:33.015Z,77.88
2023-04-29T02:48:59.977Z,77.59
2023-04-29T02:51:26.923Z,77.49
2023-04-29T02:53:54.184Z,77.22
2023-04-29T02:56:21.786Z,77.08
2023-04-29T02:58:48.857Z,77.44
2023-04-29T03:01:15.818Z,76.94
2023-04-29T03:03:42.949Z,77.19
2023-04-29T03:06:10.285Z,77.42
2023-04-29T03:08:37.239Z,77.03
2023-04-29T03:11:04.665Z,77.16
2023-04-29T03:13:31.609Z,76.78
2023-04-29T03:16:00.736Z,77.01
2023-04-29T03:18:28.160Z,77.24
2023-04-29T03:20:55.136Z,77.74
2023-04-29T03:23:22.673Z,77.68
2023-04-29T03:25:50.178Z,77.48
2023-04-29T03:28:17.108Z,77.19
2023-04-29T03:30:44.004Z,77.21
2023-04-29T03:33:11.054Z,77.73
2023-04-29T03:35:37.935Z,77.54
2023-04-29T03:38:04.842Z,77.17
2023-04-29T03:40:31.732Z,77.00
2023-04-29T03:42:58.728Z,77.12
2023-04-29T03:45:25.718Z,77.32
2023-04-29T03:47:53.642Z,76.96
2023-04-29T03:50:20.804Z,77.08
2023-04-29T03:52:47.796Z,77.68
2023-04-29T03:55:14.816Z,77.41
2023-04-29T03:57:42.467Z,77.88
2023-04-29T04:00:10.342Z,77.30
2023-04-29T04:02:37.597Z,77.23
2023-04-29T04:05:05.013Z,77.01
2023-04-29T04:07:31.935Z,77.37
2023-04-29T04:09:58.858Z,77.64
2023-04-29T04:12:25.796Z,77.41
2023-04-29T04:14:53.210Z,77.21
2023-04-29T04:17:20.235Z,77.12
2023-04-29T04:19:47.158Z,76.89
2023-04-29T04:22:14.459Z,77.10
2023-04-29T04:24:41.397Z,77.05
2023-04-29T04:27:08.379Z,76.98
2023-04-29T04:29:35.295Z,77.29
2023-04-29T04:32:02.919Z,77.59
2023-04-29T04:34:29.863Z,77.50
2023-04-29T04:36:56.866Z,77.23
2023-04-29T04:39:24.049Z,76.90
2023-04-29T04:41:50.905Z,77.20
2023-04-29T04:44:17.847Z,76.88
2023-04-29T04:46:44.890Z,77.17
2023-04-29T04:49:11.980Z,76.96
2023-04-29T04:51:38.924Z,76.99
2023-04-29T04:54:05.905Z,76.86
2023-04-29T04:56:32.809Z,76.83
2023-04-29T04:58:59.727Z,77.05
2023-04-29T05:01:26.665Z,76.91
2023-04-29T05:03:53.815Z,76.75
2023-04-29T05:06:20.858Z,76.61
2023-04-29T05:08:47.798Z,76.74
2023-04-29T05:11:18.903Z,76.33
2023-04-29T05:13:46.110Z,76.19
2023-04-29T05:16:13.118Z,76.09
2023-04-29T05:18:40.222Z,76.12
2023-04-29T05:21:07.205Z,76.05
2023-04-29T05:23:34.172Z,76.21
2023-04-29T05:26:01.067Z,76.04
2023-04-29T05:28:28.483Z,76.06
2023-04-29T05:30:55.635Z,75.79
2023-04-29T05:33:22.894Z,76.03
2023-04-29T05:35:49.834Z,75.74
2023-04-29T05:38:16.749Z,75.44
2023-04-29T05:40:43.792Z,75.02
2023-04-29T05:43:11.537Z,75.15
2023-04-29T05:45:38.527Z,75.18
2023-04-29T05:48:05.845Z,75.36
2023-04-29T05:50:32.915Z,75.43
2023-04-29T05:52:59.816Z,75.12
2023-04-29T05:55:26.904Z,75.18
2023-04-29T05:57:53.833Z,75.00
2023-04-29T06:00:20.829Z,75.41
2023-04-29T06:02:58.011Z,75.29
2023-04-29T06:05:26.662Z,75.25
2023-04-29T06:07:53.842Z,75.30
2023-04-29T06:10:20.871Z,75.13
2023-04-29T06:12:50.940Z,75.51
2023-04-29T06:15:18.046Z,75.32
2023-04-29T06:17:45.233Z,75.08
2023-04-29T06:20:12.736Z,74.95
2023-04-29T06:22:39.674Z,75.19
2023-04-29T06:25:06.950Z,75.09
2023-04-29T06:27:33.885Z,75.08
2023-04-29T06:30:00.813Z,75.02
2023-04-29T06:32:27.694Z,74.92
2023-04-29T06:34:54.772Z,74.61
2023-04-29T06:37:21.742Z,74.68
2023-04-29T06:39:48.737Z,74.95
2023-04-29T06:42:15.855Z,74.83
2023-04-29T06:44:42.864Z,74.54
2023-04-29T06:47:10.106Z,74.52
2023-04-29T06:49:37.089Z,74.61
2023-04-29T06:52:04.213Z,74.50
2023-04-29T06:54:31.172Z,74.74
2023-04-29T06:56:58.562Z,74.69
2023-04-29T06:59:25.569Z,74.69
2023-04-29T07:01:52.587Z,74.71
2023-04-29T07:04:19.942Z,74.03
2023-04-29T07:06:47.390Z,74.23
2023-04-29T07:09:14.685Z,73.73
2023-04-29T07:11:42.230Z,73.66
2023-04-29T07:14:09.881Z,73.48
2023-04-29T07:16:36.877Z,73.14
2023-04-29T07:19:03.840Z,72.96
2023-04-29T07:21:31.480Z,72.91
2023-04-29T07:24:00.948Z,73.11
2023-04-29T07:26:28.066Z,72.69
2023-04-29T07:28:54.983Z,72.29
2023-04-29T07:31:22.802Z,71.55
2023-04-29T07:33:49.789Z,71.22
2023-04-29T07:36:16.837Z,70.42
2023-04-29T07:38:43.856Z,70.23
2023-04-29T07:41:10.865Z,70.04
2023-04-29T07:43:38.803Z,69.34
2023-04-29T07:46:06.662Z,69.25
2023-04-29T07:48:40.093Z,68.63
2023-04-29T07:51:07.204Z,68.36
2023-04-29T07:53:34.382Z,68.37
2023-04-29T07:56:06.228Z,68.10
2023-04-29T07:58:33.409Z,67.95
2023-04-29T08:01:11.855Z,67.66
2023-04-29T08:03:41.426Z,67.51
2023-04-29T08:06:09.350Z,67.31
2023-04-29T08:08:36.573Z,67.27
2023-04-29T08:11:03.827Z,66.61
2023-04-29T08:13:30.742Z,65.82
2023-04-29T08:15:57.712Z,66.00
2023-04-29T08:18:24.820Z,65.70
2023-04-29T08:20:51.773Z,65.25
2023-04-29T08:23:18.720Z,64.60
2023-04-29T08:25:46.019Z,64.21
2023-04-29T08:28:13.300Z,63.98
2023-04-29T08:30:41.578Z,63.58
2023-04-29T08:33:09.236Z,63.20
2023-04-29T08:35:42.412Z,63.15
2023-04-29T08:38:10.286Z,63.94
2023-04-29T08:40:43.786Z,63.51
2023-04-29T08:43:10.871Z,62.55
2023-04-29T08:45:38.229Z,62.37
2023-04-29T08:48:07.200Z,60.77
2023-04-29T08:50:40.336Z,60.90
2023-04-29T08:53:08.250Z,61.09
2023-04-29T08:55:46.243Z,59.92
2023-04-29T08:58:15.438Z,60.76
2023-04-29T09:00:44.113Z,61.45
2023-04-29T09:03:43.067Z,61.28
2023-04-29T09:06:11.313Z,62.04
2023-04-29T09:08:39.380Z,62.14
2023-04-29T09:11:10.759Z,61.59
2023-04-29T09:13:37.797Z,61.16
2023-04-29T09:16:06.230Z,61.26
2023-04-29T09:18:44.086Z,60.23
2023-04-29T09:21:22.938Z,59.36
2023-04-29T09:23:52.104Z,59.15
2023-04-29T09:26:19.430Z,59.49
2023-04-29T09:28:47.953Z,58.82
2023-04-29T09:31:15.131Z,58.46
2023-04-29T09:33:56.360Z,58.15
2023-04-29T09:36:46.477Z,57.75
2023-04-29T09:39:18.971Z,58.12
2023-04-29T09:41:54.839Z,57.88
2023-04-29T09:44:32.928Z,57.78
2023-04-29T09:47:09.526Z,57.74
2023-04-29T09:49:38.693Z,57.69
2023-04-29T09:52:11.097Z,57.13
2023-04-29T09:54:41.534Z,56.69
2023-04-29T09:57:10.464Z,56.39
2023-04-29T09:59:39.956Z,56.18
2023-04-29T10:02:27.801Z,55.22
2023-04-29T10:04:58.465Z,56.19
2023-04-29T10:07:28.415Z,56.95
2023-04-29T10:09:56.262Z,57.03
2023-04-29T10:12:27.169Z,56.45
2023-04-29T10:15:33.859Z,56.67
2023-04-29T10:18:16.251Z,55.52
2023-04-29T10:20:47.602Z,55.35
2023-04-29T10:23:16.414Z,54.41
2023-04-29T10:25:44.920Z,54.34
2023-04-29T10:28:17.929Z,55.09
2023-04-29T10:30:45.854Z,55.35
2023-04-29T10:33:16.994Z,54.86
2023-04-29T10:35:45.436Z,54.15
2023-04-29T10:38:26.376Z,52.29
2023-04-29T10:40:54.410Z,52.05
2023-04-29T10:43:25.210Z,52.01
2023-04-29T10:46:17.715Z,51.61
2023-04-29T10:48:47.465Z,51.96
2023-04-29T10:51:31.890Z,51.17
2023-04-29T10:54:07.674Z,51.92
2023-04-29T10:56:51.845Z,50.77
2023-04-29T10:59:33.766Z,50.79
2023-04-29T11:02:03.735Z,51.15
2023-04-29T11:04:31.757Z,51.35
2023-04-29T11:07:03.221Z,51.56
2023-04-29T11:09:35.512Z,50.76
2023-04-29T11:12:04.379Z,50.56
2023-04-29T11:14:32.665Z,50.37
2023-04-29T11:17:05.303Z,50.79
2023-04-29T11:19:57.626Z,50.50
2023-04-29T11:22:27.062Z,49.79
2023-04-29T11:25:06.168Z,50.02
2023-04-29T11:27:34.033Z,50.15
2023-04-29T11:30:06.184Z,49.40
2023-04-29T11:32:41.596Z,49.64
2023-04-29T11:35:13.635Z,49.13
2023-04-29T11:37:42.223Z,48.45
2023-04-29T11:40:10.265Z,48.08
2023-04-29T11:42:43.772Z,47.33
2023-04-29T11:45:11.327Z,47.49
2023-04-29T11:47:43.999Z,47.31
2023-04-29T11:50:11.337Z,47.47
2023-04-29T11:52:40.584Z,47.40
2023-04-29T11:55:11.966Z,47.14
2023-04-29T11:57:40.422Z,46.76
2023-04-29T12:00:14.461Z,47.13
2023-04-29T12:02:46.779Z,47.25
2023-04-29T12:05:16.444Z,47.02
2023-04-29T12:07:44.138Z,47.15
2023-04-29T12:10:14.229Z,46.88
2023-04-29T12:12:44.009Z,46.70
2023-04-29T12:15:12.925Z,47.17
2023-04-29T12:17:41.036Z,46.91
2023-04-29T12:20:14.523Z,46.70
2023-04-29T12:22:44.171Z,47.50
2023-04-29T12:25:13.457Z,48.10
2023-04-29T12:27:46.456Z,47.81
2023-04-29T12:30:13.571Z,48.08
2023-04-29T12:32:41.184Z,46.86
2023-04-29T12:35:16.692Z,46.29
2023-04-29T12:37:43.744Z,45.90
2023-04-29T12:40:16.553Z,45.87
2023-04-29T12:42:45.198Z,44.08
2023-04-29T12:45:29.580Z,41.88
2023-04-29T12:48:00.954Z,43.28
2023-04-29T12:50:31.603Z,42.88
2023-04-29T12:52:58.990Z,42.53
2023-04-29T12:55:28.505Z,43.74
2023-04-29T12:57:55.596Z,43.66
2023-04-29T13:00:22.817Z,43.51
2023-04-29T13:02:49.987Z,43.40
2023-04-29T13:05:17.214Z,43.02
2023-04-29T13:07:44.315Z,43.18
2023-04-29T13:10:14.489Z,42.75
2023-04-29T13:12:41.500Z,42.50
2023-04-29T13:15:11.843Z,42.85
2023-04-29T13:17:39.310Z,43.31
2023-04-29T13:20:07.128Z,43.05
2023-04-29T13:22:34.439Z,43.02
2023-04-29T13:25:04.991Z,43.61
2023-04-29T13:27:32.326Z,43.87
2023-04-29T13:29:59.374Z,43.56
2023-04-29T13:32:34.722Z,44.18
2023-04-29T13:35:09.495Z,44.86
2023-04-29T13:37:36.652Z,45.26
2023-04-29T13:40:07.238Z,45.25
2023-04-29T13:42:39.120Z,45.64
2023-04-29T13:45:16.336Z,45.33
2023-04-29T13:48:03.056Z,44.85
2023-04-29T13:53:35.508Z,44.76
2023-04-29T14:03:21.659Z,44.54
2023-04-29T14:05:48.837Z,43.72
2023-04-29T14:08:15.870Z,43.36
2023-04-29T14:10:43.142Z,43.78
2023-04-29T14:13:10.045Z,43.74
2023-04-29T14:15:37.024Z,43.40
2023-04-29T14:18:04.336Z,43.38
2023-04-29T14:20:31.810Z,42.77
2023-04-29T14:22:58.897Z,42.45
2023-04-29T14:25:26.738Z,41.52
2023-04-29T14:27:55.573Z,41.95
2023-04-29T14:30:22.615Z,41.65
2023-04-29T14:32:49.611Z,41.78
2023-04-29T14:35:16.844Z,41.68
2023-04-29T14:37:43.825Z,41.06
2023-04-29T14:40:11.198Z,40.54
2023-04-29T14:42:38.736Z,40.45
2023-04-29T14:45:07.062Z,40.08
2023-04-29T14:47:34.541Z,39.87
2023-04-29T14:50:02.213Z,39.50
2023-04-29T14:52:29.242Z,39.89
2023-04-29T14:54:59.000Z,40.21
2023-04-29T14:57:25.902Z,40.92
2023-04-29T14:59:52.790Z,41.63
2023-04-29T15:02:19.690Z,42.20
2023-04-29T15:04:49.419Z,42.85
2023-04-29T15:07:16.764Z,42.99
2023-04-29T15:09:43.858Z,43.26
2023-04-29T15:12:10.895Z,43.69
2023-04-29T15:14:38.084Z,44.32
2023-04-29T15:17:05.365Z,44.59
2023-04-29T15:19:35.617Z,44.32
2023-04-29T15:22:02.543Z,44.34
2023-04-29T15:24:32.907Z,44.23
2023-04-29T15:26:59.859Z,44.99
2023-04-29T15:29:27.562Z,45.11
2023-04-29T15:31:54.558Z,45.49
2023-04-29T15:34:21.986Z,45.67
2023-04-29T15:36:50.040Z,46.25
2023-04-29T15:39:19.749Z,46.92
2023-04-29T15:41:46.828Z,46.23
2023-04-29T15:44:16.440Z,47.97
2023-04-29T15:46:43.415Z,48.72
2023-04-29T15:49:13.396Z,49.28
2023-04-29T15:51:40.341Z,49.84
2023-04-29T15:54:07.905Z,50.51
2023-04-29T15:56:37.245Z,51.07
2023-04-29T15:59:04.150Z,50.95
2023-04-29T16:01:31.980Z,51.16
2023-04-29T16:03:59.902Z,50.36
2023-04-29T16:06:27.714Z,50.47
2023-04-29T16:08:56.762Z,51.14
2023-04-29T16:11:23.870Z,51.31
2023-04-29T16:13:50.965Z,51.67
2023-04-29T16:16:18.827Z,51.31
2023-04-29T16:18:48.891Z,51.20
2023-04-29T16:21:15.853Z,51.55
2023-04-29T16:23:42.843Z,52.12
2023-04-29T16:26:10.845Z,52.27
2023-04-29T16:28:38.126Z,52.72
2023-04-29T16:31:07.821Z,52.26
2023-04-29T16:33:34.825Z,52.81
2023-04-29T16:36:05.386Z,52.89
2023-04-29T16:38:32.352Z,53.68
2023-04-29T16:40:59.387Z,53.30
2023-04-29T16:43:28.936Z,53.07
2023-04-29T16:45:56.194Z,53.35
2023-04-29T16:48:25.875Z,54.04
2023-04-29T16:50:52.884Z,53.87
2023-04-29T16:53:20.135Z,54.24
2023-04-29T16:55:47.169Z,53.94
2023-04-29T16:58:14.131Z,53.64
2023-04-29T17:00:41.205Z,54.08
2023-04-29T17:03:08.332Z,54.25
2023-04-29T17:05:38.721Z,54.40
2023-04-29T17:08:05.887Z,54.67
2023-04-29T17:10:32.817Z,55.42
2023-04-29T17:12:59.893Z,55.17
2023-04-29T17:15:28.845Z,55.33
2023-04-29T17:17:55.933Z,55.60
2023-04-29T17:20:22.952Z,56.35
2023-04-29T17:22:50.576Z,56.41
2023-04-29T17:25:18.086Z,56.48
2023-04-29T17:27:46.088Z,57.07
2023-04-29T17:30:13.424Z,56.76
2023-04-29T17:32:40.523Z,57.05
2023-04-29T17:35:08.836Z,57.22
2023-04-29T17:37:36.380Z,57.44
2023-04-29T17:40:03.953Z,57.21
2023-04-29T17:42:30.912Z,57.33
2023-04-29T17:45:00.454Z,56.89
2023-04-29T17:47:27.495Z,56.47
2023-04-29T17:49:54.609Z,56.68
2023-04-29T17:52:21.745Z,56.95
2023-04-29T17:54:49.435Z,56.78
2023-04-29T17:57:16.517Z,57.04
2023-04-29T17:59:43.965Z,57.43
2023-04-29T18:02:10.963Z,57.40
2023-04-29T18:04:41.891Z,57.53
2023-04-29T18:07:09.046Z,57.81
2023-04-29T18:09:36.418Z,57.61
2023-04-29T18:12:05.279Z,58.03
2023-04-29T18:14:32.363Z,58.13
2023-04-29T18:17:01.424Z,58.45
2023-04-29T18:19:28.847Z,58.84
2023-04-29T18:21:59.472Z,59.31
2023-04-29T18:24:26.496Z,59.54
2023-04-29T18:26:53.793Z,59.74
2023-04-29T18:29:20.717Z,60.47
2023-04-29T18:31:47.898Z,60.81
2023-04-29T18:34:15.818Z,60.91
2023-04-29T18:36:42.914Z,61.07
2023-04-29T18:39:10.038Z,60.52
2023-04-29T18:41:37.443Z,60.77
2023-04-29T18:44:04.638Z,60.48
2023-04-29T18:46:31.814Z,60.18
2023-04-29T18:48:58.760Z,59.83
2023-04-29T18:51:26.960Z,60.01
2023-04-29T18:53:54.068Z,60.02
2023-04-29T18:56:21.572Z,60.14
2023-04-29T18:58:49.436Z,60.21
2023-04-29T19:01:17.100Z,59.86
2023-04-29T19:03:44.157Z,59.79
2023-04-29T19:06:11.265Z,60.08
2023-04-29T19:08:38.280Z,59.81
2023-04-29T19:11:05.301Z,59.62
2023-04-29T19:13:32.289Z,59.73
2023-04-29T19:15:59.581Z,59.81
2023-04-29T19:18:29.336Z,59.93
2023-04-29T19:20:59.095Z,59.83
2023-04-29T19:23:26.204Z,59.60
2023-04-29T19:25:53.088Z,60.11
2023-04-29T19:28:20.088Z,60.56
2023-04-29T19:30:47.093Z,60.72
2023-04-29T19:33:14.117Z,60.71
2023-04-29T19:35:41.100Z,59.80
2023-04-29T19:38:08.012Z,59.65
2023-04-29T19:40:35.073Z,59.35
2023-04-29T19:43:02.020Z,59.36
2023-04-29T19:45:31.843Z,59.05
2023-04-29T19:48:02.237Z,59.17
2023-04-29T19:50:32.716Z,59.46
2023-04-29T19:53:03.043Z,59.25
2023-04-29T19:55:35.631Z,59.14
2023-04-29T19:58:02.837Z,59.08
2023-04-29T20:00:36.057Z,59.55
2023-04-29T20:03:05.970Z,59.06
2023-04-29T20:05:33.007Z,59.07
2023-04-29T20:07:59.930Z,59.59
2023-04-29T20:10:30.114Z,59.65
2023-04-29T20:12:59.808Z,59.08
2023-04-29T20:15:26.791Z,59.65
2023-04-29T20:17:54.386Z,59.50
2023-04-29T20:20:21.558Z,59.42
2023-04-29T20:22:48.545Z,59.84
2023-04-29T20:25:15.535Z,59.91
2023-04-29T20:27:42.580Z,59.83
2023-04-29T20:30:12.976Z,60.20
2023-04-29T20:32:39.981Z,59.75
2023-04-29T20:35:08.400Z,59.93
2023-04-29T20:37:35.774Z,59.50
2023-04-29T20:40:03.153Z,60.10
2023-04-29T20:42:31.800Z,60.01
2023-04-29T20:44:59.307Z,60.18
2023-04-29T20:47:27.751Z,60.60
2023-04-29T20:49:54.894Z,60.40
2023-04-29T20:52:22.599Z,60.65
2023-04-29T20:54:52.345Z,60.98
2023-04-29T20:57:21.584Z,61.42
2023-04-29T20:59:49.717Z,61.65
2023-04-29T21:02:17.358Z,61.19
2023-04-29T21:04:44.789Z,61.14
2023-04-29T21:07:13.903Z,60.61
2023-04-29T21:09:40.935Z,60.44
2023-04-29T21:12:08.573Z,60.72
2023-04-29T21:14:36.713Z,61.18
2023-04-29T21:17:04.060Z,61.27
2023-04-29T21:19:32.509Z,61.02
2023-04-29T21:21:59.554Z,60.77
2023-04-29T21:24:27.228Z,60.84
2023-04-29T21:26:54.371Z,61.14
2023-04-29T21:29:21.533Z,60.97
2023-04-29T21:31:48.504Z,61.21
2023-04-29T21:34:16.299Z,61.44
2023-04-29T21:36:43.238Z,61.53
2023-04-29T21:39:10.956Z,61.44
2023-04-29T21:41:42.291Z,61.49
2023-04-29T21:44:09.709Z,61.53
2023-04-29T21:46:41.121Z,61.74
2023-04-29T21:49:08.762Z,61.89
2023-04-29T21:51:40.828Z,62.19
2023-04-29T21:54:08.922Z,62.48
2023-04-29T21:56:36.096Z,62.46
2023-04-29T21:59:03.129Z,62.45
2023-04-29T22:01:48.456Z,62.23
2023-04-29T22:04:21.759Z,62.77
2023-04-29T22:06:48.851Z,62.98
2023-04-29T22:09:16.309Z,62.70
2023-04-29T22:11:46.314Z,62.78
2023-04-29T22:14:13.589Z,62.89
2023-04-29T22:16:46.770Z,63.44
2023-04-29T22:19:15.583Z,63.18
2023-04-29T22:21:43.201Z,63.21
2023-04-29T22:24:10.417Z,63.02
2023-04-29T22:26:37.407Z,63.56
2023-04-29T22:29:04.698Z,63.73
2023-04-29T22:31:31.639Z,63.36
2023-04-29T22:33:58.582Z,63.21
2023-04-29T22:36:26.187Z,63.02
2023-04-29T22:38:53.080Z,63.16
2023-04-29T22:41:19.977Z,63.67
2023-04-29T22:43:46.946Z,63.58
2023-04-29T22:46:14.195Z,63.52
2023-04-29T22:48:41.156Z,63.22
2023-04-29T22:51:10.890Z,63.33
2023-04-29T22:53:37.944Z,63.75
2023-04-29T22:56:05.429Z,63.81
2023-04-29T22:58:35.229Z,63.52
2023-04-29T23:01:02.240Z,63.57
2023-04-29T23:03:29.194Z,63.56
2023-04-29T23:06:00.093Z,64.36
2023-04-29T23:08:27.651Z,64.12
2023-04-29T23:10:54.834Z,64.04
2023-04-29T23:13:24.578Z,64.04
2023-04-29T23:15:52.411Z,64.42
2023-04-29T23:18:19.402Z,63.88
2023-04-29T23:20:48.026Z,64.14
2023-04-29T23:23:15.019Z,64.60
2023-04-29T23:25:45.828Z,64.81
2023-04-29T23:28:15.511Z,64.74
2023-04-29T23:30:44.800Z,65.08
2023-04-29T23:33:12.020Z,65.34
2023-04-29T23:35:41.904Z,64.92
2023-04-29T23:38:08.946Z,65.03
2023-04-29T23:40:35.978Z,64.82
2023-04-29T23:43:03.125Z,65.40
2023-04-29T23:45:32.278Z,65.74
2023-04-29T23:48:05.067Z,65.33
2023-04-29T23:50:32.155Z,65.69
2023-04-29T23:52:59.101Z,66.30
2023-04-29T23:55:28.467Z,65.74
2023-04-29T23:57:55.394Z,65.83
